Time;durP1;ratioP1;P1;durP2;ratioP2;P2;SDS_P1;SDS_P2;PMS_P1;PMS_P2;Temp;Humidity;BMP_temperature;BMP_pressure;BME280_temperature;BME280_humidity;BME280_pressure;Samples;Min_cycle;Max_cycle;Signal;HPM_P1;HPM_P2
2022/05/28 00:01:40;;;;;;;;;;;9.30;99.90;;;;;;5072695;28;19925;-64
2022/05/28 00:04:08;;;;;;;;;;;9.30;99.90;;;;;;5072347;28;19932;-63
2022/05/28 00:06:35;;;;;;;;;;;9.20;99.90;;;;;;5072350;28;19924;-64
2022/05/28 00:09:02;;;;;;;;;;;9.20;99.90;;;;;;5072370;28;19924;-64
2022/05/28 00:11:30;;;;;;;;;;;9.10;99.90;;;;;;5072409;28;19940;-64
2022/05/28 00:13:56;;;;;;;;;;;9.20;99.90;;;;;;5072162;28;20285;-64
2022/05/28 00:16:23;;;;;;;;;;;9.30;99.90;;;;;;5073373;28;20372;-64
2022/05/28 00:18:51;;;;;;;;;;;9.30;99.90;;;;;;5071962;28;19929;-63
2022/05/28 00:21:20;;;;;;;;;;;9.20;99.90;;;;;;5072130;28;19990;-64
2022/05/28 00:23:47;;;;;;;;;;;9.20;99.90;;;;;;5072138;28;19931;-64
2022/05/28 00:26:14;;;;;;;;;;;9.20;99.90;;;;;;5072268;28;19929;-65
2022/05/28 00:28:41;;;;;;;;;;;9.10;99.90;;;;;;5072036;28;19924;-64
2022/05/28 00:31:08;;;;;;;;;;;9.10;99.90;;;;;;5071648;28;20034;-65
2022/05/28 00:33:35;;;;;;;;;;;9.10;99.90;;;;;;5071645;28;19981;-67
2022/05/28 00:36:04;;;;;;;;;;;9.20;99.90;;;;;;5071784;28;19931;-67
2022/05/28 00:38:32;;;;;;;;;;;9.10;99.90;;;;;;5071618;28;19924;-67
2022/05/28 00:41:00;;;;;;;;;;;9.10;99.90;;;;;;5071426;28;19924;-65
2022/05/28 00:43:28;;;;;;;;;;;9.00;99.90;;;;;;5071638;28;19928;-66
2022/05/28 00:45:58;;;;;;;;;;;8.90;99.90;;;;;;5071685;28;19925;-66
2022/05/28 00:48:29;;;;;;;;;;;8.90;99.90;;;;;;5071914;28;19998;-65
2022/05/28 00:50:56;;;;;;;;;;;8.90;99.90;;;;;;5071537;28;19925;-65
2022/05/28 00:53:23;;;;;;;;;;;8.90;99.90;;;;;;5071540;28;19925;-66
2022/05/28 00:55:52;;;;;;;;;;;8.90;99.90;;;;;;5071716;28;19932;-66
2022/05/28 00:58:18;;;;;;;;;;;8.80;99.90;;;;;;5070613;28;19928;-65
2022/05/28 01:00:45;;;;;;;;;;;8.80;99.90;;;;;;5071006;28;19928;-65
2022/05/28 01:03:19;;;;;;;;;;;8.80;99.90;;;;;;5071367;28;20023;-66
2022/05/28 01:05:49;;;;;;;;;;;8.80;99.90;;;;;;5071238;28;19932;-66
2022/05/28 01:08:19;;;;;;;;;;;8.80;99.90;;;;;;5071258;28;20342;-66
2022/05/28 01:10:49;;;;;;;;;;;8.80;99.90;;;;;;5071006;28;19928;-66
2022/05/28 01:13:22;;;;;;;;;;;8.70;99.90;;;;;;5070914;28;20358;-65
2022/05/28 01:15:52;;;;;;;;;;;8.80;99.90;;;;;;5071034;28;19978;-66
2022/05/28 01:18:22;;;;;;;;;;;8.70;99.90;;;;;;5071239;28;19928;-66
2022/05/28 01:20:50;;;;;;;;;;;8.60;99.90;;;;;;5070749;28;19936;-66
2022/05/28 01:23:33;;;;;;;;;;;8.50;99.90;;;;;;5071255;28;19974;-65
2022/05/28 01:26:05;;;;;;;;;;;8.50;99.90;;;;;;5070872;28;19925;-66
2022/05/28 01:28:35;;;;;;;;;;;8.50;99.90;;;;;;5070462;28;19924;-65
2022/05/28 01:31:03;;;;;;;;;;;8.50;99.90;;;;;;5070608;28;19928;-65
2022/05/28 01:33:31;;;;;;;;;;;8.60;99.90;;;;;;5070815;28;20357;-65
2022/05/28 01:35:58;;;;;;;;;;;8.60;99.90;;;;;;5070805;28;19936;-65
2022/05/28 01:38:25;;;;;;;;;;;8.70;99.90;;;;;;5070608;28;19932;-65
2022/05/28 01:40:53;;;;;;;;;;;8.80;99.90;;;;;;5070435;28;20384;-65
2022/05/28 01:43:20;;;;;;;;;;;8.90;99.90;;;;;;5070604;28;19974;-66
2022/05/28 01:45:49;;;;;;;;;;;8.80;99.90;;;;;;5070322;28;20367;-66
2022/05/28 01:48:18;;;;;;;;;;;8.90;99.90;;;;;;5069766;28;20202;-66
2022/05/28 01:50:46;;;;;;;;;;;9.00;99.90;;;;;;5070046;28;19924;-66
2022/05/28 01:54:06;;;;;;;;;;;9.20;99.90;;;;;;5069961;28;19928;-65
2022/05/28 01:56:02;;;;;;;;;;;9.30;99.90;;;;;;5058056;28;19932;-65
2022/05/28 01:58:29;;;;;;;;;;;9.50;99.90;;;;;;5064602;28;19924;-65
2022/05/28 02:00:58;;;;;;;;;;;9.60;99.90;;;;;;5060623;28;19928;-64
2022/05/28 02:03:25;;;;;;;;;;;9.70;99.90;;;;;;5059256;28;19931;-66
2022/05/28 02:05:52;;;;;;;;;;;9.90;99.90;;;;;;5061038;28;19924;-66
2022/05/28 02:08:19;;;;;;;;;;;10.00;99.90;;;;;;5064409;28;19928;-66
2022/05/28 02:10:47;;;;;;;;;;;10.20;99.90;;;;;;5080428;28;19939;-65
2022/05/28 02:13:17;;;;;;;;;;;10.30;99.90;;;;;;5061660;28;19924;-65
2022/05/28 02:15:46;;;;;;;;;;;10.40;99.90;;;;;;5064572;28;19924;-65
2022/05/28 02:18:19;;;;;;;;;;;10.40;99.90;;;;;;5067760;28;20365;-65
2022/05/28 02:20:49;;;;;;;;;;;10.40;99.90;;;;;;5059847;28;19974;-65
2022/05/28 02:23:18;;;;;;;;;;;10.40;99.90;;;;;;5060491;28;19925;-65
2022/05/28 02:25:47;;;;;;;;;;;10.30;99.90;;;;;;5062803;28;19974;-66
2022/05/28 02:28:14;;;;;;;;;;;10.30;99.90;;;;;;5059800;28;19933;-65
2022/05/28 02:30:48;;;;;;;;;;;10.40;99.90;;;;;;5060431;28;19925;-66
2022/05/28 02:33:17;;;;;;;;;;;10.40;99.90;;;;;;5063814;28;19925;-66
2022/05/28 02:35:44;;;;;;;;;;;10.50;99.90;;;;;;5055253;28;19970;-65
2022/05/28 02:38:11;;;;;;;;;;;10.60;99.90;;;;;;5058124;28;19928;-65
2022/05/28 02:40:38;;;;;;;;;;;10.60;99.90;;;;;;5053146;28;19959;-66
2022/05/28 02:43:05;;;;;;;;;;;10.60;99.90;;;;;;5058596;28;19932;-66
2022/05/28 02:45:32;;;;;;;;;;;10.60;99.90;;;;;;5064555;28;19924;-65
2022/05/28 02:47:58;;;;;;;;;;;10.70;99.90;;;;;;5059867;28;19928;-66
2022/05/28 02:50:27;;;;;;;;;;;10.70;99.90;;;;;;5057960;28;19931;-65
2022/05/28 02:52:55;;;;;;;;;;;10.70;99.90;;;;;;5056815;28;19925;-66
2022/05/28 02:55:21;;;;;;;;;;;10.70;99.90;;;;;;5061109;28;19928;-66
2022/05/28 02:57:48;;;;;;;;;;;10.80;99.90;;;;;;5054662;28;20443;-65
2022/05/28 03:00:15;;;;;;;;;;;10.70;99.90;;;;;;5062074;28;20296;-66
2022/05/28 03:02:42;;;;;;;;;;;10.70;99.90;;;;;;5064641;28;19925;-64
2022/05/28 03:05:09;;;;;;;;;;;10.70;99.90;;;;;;5054998;28;19936;-65
2022/05/28 03:07:37;;;;;;;;;;;10.80;99.90;;;;;;5061362;28;19950;-65
2022/05/28 03:10:04;;;;;;;;;;;10.70;99.90;;;;;;5055458;28;19924;-66
2022/05/28 03:12:31;;;;;;;;;;;10.70;99.90;;;;;;5064218;28;19928;-66
2022/05/28 03:14:58;;;;;;;;;;;10.70;99.90;;;;;;5063994;28;20350;-65
2022/05/28 03:17:25;;;;;;;;;;;10.60;99.90;;;;;;5063837;28;20281;-65
2022/05/28 03:19:52;;;;;;;;;;;10.60;99.90;;;;;;5054994;28;19979;-65
2022/05/28 03:22:18;;;;;;;;;;;10.50;99.90;;;;;;5067424;28;19925;-66
2022/05/28 03:24:46;;;;;;;;;;;10.50;99.90;;;;;;5064370;28;20395;-66
2022/05/28 03:27:13;;;;;;;;;;;10.50;99.90;;;;;;5064504;28;19925;-65
2022/05/28 03:29:40;;;;;;;;;;;10.40;99.90;;;;;;5065800;28;20484;-65
2022/05/28 03:32:07;;;;;;;;;;;10.40;99.90;;;;;;5065843;28;19974;-66
2022/05/28 03:34:34;;;;;;;;;;;10.40;99.90;;;;;;5066401;28;19924;-64
2022/05/28 03:37:00;;;;;;;;;;;10.40;99.90;;;;;;5056163;28;19986;-65
2022/05/28 03:39:27;;;;;;;;;;;10.40;99.90;;;;;;5058584;28;20011;-66
2022/05/28 03:41:55;;;;;;;;;;;10.40;99.90;;;;;;5058204;28;19964;-66
2022/05/28 03:44:22;;;;;;;;;;;10.30;99.90;;;;;;5057644;28;20352;-65
2022/05/28 03:46:48;;;;;;;;;;;10.40;99.90;;;;;;5060719;28;20346;-66
2022/05/28 03:49:20;;;;;;;;;;;10.30;99.90;;;;;;5064869;28;19924;-64
2022/05/28 03:51:47;;;;;;;;;;;10.30;99.90;;;;;;5067328;28;19978;-64
2022/05/28 03:54:14;;;;;;;;;;;10.20;99.90;;;;;;5062982;28;20479;-66
2022/05/28 03:56:42;;;;;;;;;;;10.20;99.90;;;;;;5066214;28;19925;-65
2022/05/28 03:59:10;;;;;;;;;;;10.20;99.90;;;;;;5066134;28;19925;-65
2022/05/28 04:01:37;;;;;;;;;;;10.20;99.90;;;;;;5067374;28;19932;-66
2022/05/28 04:04:04;;;;;;;;;;;10.20;99.90;;;;;;5064327;28;19925;-66
2022/05/28 04:06:31;;;;;;;;;;;10.10;99.90;;;;;;5063410;28;19972;-65
2022/05/28 04:08:58;;;;;;;;;;;10.10;99.90;;;;;;5062813;28;19924;-66
2022/05/28 04:11:25;;;;;;;;;;;10.20;99.90;;;;;;5057244;28;20454;-66
2022/05/28 04:13:52;;;;;;;;;;;10.20;99.90;;;;;;5060427;28;19928;-66
2022/05/28 04:16:20;;;;;;;;;;;10.20;99.90;;;;;;5065540;28;19993;-64
2022/05/28 04:18:47;;;;;;;;;;;10.20;99.90;;;;;;5056942;28;19929;-67
2022/05/28 04:21:14;;;;;;;;;;;10.20;99.90;;;;;;5066852;28;20285;-66
2022/05/28 04:23:41;;;;;;;;;;;10.20;99.90;;;;;;5064095;28;19958;-66
2022/05/28 04:26:07;;;;;;;;;;;10.30;99.90;;;;;;5069147;28;20359;-65
2022/05/28 04:28:34;;;;;;;;;;;10.40;99.90;;;;;;5069340;28;19932;-65
2022/05/28 04:31:01;;;;;;;;;;;10.40;99.90;;;;;;5062427;28;20346;-66
2022/05/28 04:33:29;;;;;;;;;;;10.50;99.90;;;;;;5065222;28;19929;-65
2022/05/28 04:35:56;;;;;;;;;;;10.50;99.90;;;;;;5066065;28;19925;-66
2022/05/28 04:38:23;;;;;;;;;;;10.60;99.90;;;;;;5063557;28;19925;-66
2022/05/28 04:40:50;;;;;;;;;;;10.70;99.90;;;;;;5068025;28;19943;-65
2022/05/28 04:43:18;;;;;;;;;;;10.70;99.90;;;;;;5060097;28;19928;-66
2022/05/28 04:45:45;;;;;;;;;;;10.80;99.90;;;;;;5065852;28;19924;-67
2022/05/28 04:48:11;;;;;;;;;;;10.90;99.90;;;;;;5059914;28;20404;-66
2022/05/28 04:50:40;;;;;;;;;;;11.00;99.90;;;;;;5066188;28;19982;-65
2022/05/28 04:53:07;;;;;;;;;;;11.20;99.90;;;;;;5058356;28;19929;-66
2022/05/28 04:55:34;;;;;;;;;;;11.20;99.90;;;;;;5064976;28;20410;-66
2022/05/28 04:58:00;;;;;;;;;;;11.30;99.90;;;;;;5059937;28;19928;-66
2022/05/28 05:00:27;;;;;;;;;;;11.40;99.90;;;;;;5062829;28;19985;-66
2022/05/28 05:02:54;;;;;;;;;;;11.50;99.90;;;;;;5057746;28;20012;-65
2022/05/28 05:05:21;;;;;;;;;;;11.50;99.90;;;;;;5061167;28;19925;-66
2022/05/28 05:07:50;;;;;;;;;;;11.50;99.90;;;;;;5059433;28;19925;-66
2022/05/28 05:10:16;;;;;;;;;;;11.60;99.90;;;;;;5062313;28;19924;-66
2022/05/28 05:12:43;;;;;;;;;;;11.70;99.90;;;;;;5062964;28;19925;-65
2022/05/28 05:15:10;;;;;;;;;;;11.80;99.90;;;;;;5061062;28;19924;-66
2022/05/28 05:17:37;;;;;;;;;;;11.80;99.90;;;;;;5059501;28;19924;-66
2022/05/28 05:20:04;;;;;;;;;;;11.80;99.90;;;;;;5061064;28;20285;-66
2022/05/28 05:22:31;;;;;;;;;;;11.80;99.90;;;;;;5058211;28;19925;-65
2022/05/28 05:25:00;;;;;;;;;;;11.90;99.90;;;;;;5057275;28;19928;-67
2022/05/28 05:27:26;;;;;;;;;;;11.90;99.90;;;;;;5065286;28;19925;-66
2022/05/28 05:29:56;;;;;;;;;;;12.00;99.90;;;;;;5065182;28;19925;-66
2022/05/28 05:32:23;;;;;;;;;;;12.00;99.90;;;;;;5056315;28;19984;-66
2022/05/28 05:34:50;;;;;;;;;;;12.00;99.90;;;;;;5058279;28;19968;-64
2022/05/28 05:37:17;;;;;;;;;;;12.00;99.90;;;;;;5059007;28;19989;-66
2022/05/28 05:39:44;;;;;;;;;;;12.10;99.90;;;;;;5058653;28;19928;-66
2022/05/28 05:42:12;;;;;;;;;;;12.10;99.90;;;;;;5061835;28;19932;-66
2022/05/28 05:44:39;;;;;;;;;;;12.20;99.90;;;;;;5061954;28;19978;-65
2022/05/28 05:47:06;;;;;;;;;;;12.20;99.90;;;;;;5060869;28;19924;-66
2022/05/28 05:49:33;;;;;;;;;;;12.20;99.90;;;;;;5059665;28;19925;-66
2022/05/28 05:52:00;;;;;;;;;;;12.20;99.90;;;;;;5060491;28;20453;-66
2022/05/28 05:54:26;;;;;;;;;;;12.20;99.90;;;;;;5066786;28;19925;-66
2022/05/28 05:56:53;;;;;;;;;;;12.30;99.90;;;;;;5061687;28;19925;-66
2022/05/28 05:59:22;;;;;;;;;;;12.40;99.90;;;;;;5063115;28;19932;-66
2022/05/28 06:01:49;;;;;;;;;;;12.40;99.90;;;;;;5058364;28;19925;-66
2022/05/28 06:04:16;;;;;;;;;;;12.60;99.90;;;;;;5060797;28;19935;-66
2022/05/28 06:06:43;;;;;;;;;;;12.70;99.90;;;;;;5058428;28;19931;-66
2022/05/28 06:09:10;;;;;;;;;;;12.70;99.90;;;;;;5058527;28;19977;-67
2022/05/28 06:11:37;;;;;;;;;;;12.70;99.90;;;;;;5057515;28;19978;-66
2022/05/28 06:14:04;;;;;;;;;;;12.70;99.90;;;;;;5052230;28;20351;-66
2022/05/28 06:16:32;;;;;;;;;;;12.80;99.90;;;;;;5069245;28;20015;-66
2022/05/28 06:18:59;;;;;;;;;;;12.80;99.90;;;;;;5055691;28;19928;-66
2022/05/28 06:21:26;;;;;;;;;;;12.90;99.90;;;;;;5054460;28;19970;-66
2022/05/28 06:23:53;;;;;;;;;;;13.00;99.90;;;;;;5063411;28;19924;-65
2022/05/28 06:26:20;;;;;;;;;;;13.10;99.90;;;;;;5053778;28;20023;-65
2022/05/28 06:28:47;;;;;;;;;;;13.30;99.90;;;;;;5054403;28;19924;-67
2022/05/28 06:31:15;;;;;;;;;;;13.30;99.90;;;;;;5059571;28;19929;-66
2022/05/28 06:33:43;;;;;;;;;;;13.30;99.90;;;;;;5057822;28;19951;-66
2022/05/28 06:36:10;;;;;;;;;;;13.30;99.90;;;;;;5057669;28;20019;-66
2022/05/28 06:38:37;;;;;;;;;;;13.40;99.90;;;;;;5054378;28;19924;-66
2022/05/28 06:41:04;;;;;;;;;;;13.50;99.90;;;;;;5057987;28;19929;-65
2022/05/28 06:43:31;;;;;;;;;;;13.40;99.90;;;;;;5058233;28;19928;-66
2022/05/28 06:46:00;;;;;;;;;;;13.50;99.90;;;;;;5077512;28;19931;-66
2022/05/28 06:48:27;;;;;;;;;;;13.60;99.90;;;;;;5054243;28;19925;-65
2022/05/28 06:51:04;;;;;;;;;;;13.70;99.90;;;;;;5055991;28;19925;-67
2022/05/28 06:53:31;;;;;;;;;;;13.80;99.90;;;;;;5061379;28;20108;-65
2022/05/28 06:55:58;;;;;;;;;;;13.70;99.90;;;;;;5062325;28;20354;-66
2022/05/28 06:58:25;;;;;;;;;;;13.70;99.90;;;;;;5063975;28;20362;-66
2022/05/28 07:00:52;;;;;;;;;;;13.80;99.90;;;;;;5070235;28;19924;-66
2022/05/28 07:03:20;;;;;;;;;;;13.80;99.90;;;;;;5062991;28;20408;-66
2022/05/28 07:05:46;;;;;;;;;;;13.80;99.90;;;;;;5057766;28;20350;-66
2022/05/28 07:08:14;;;;;;;;;;;13.70;99.90;;;;;;5067247;28;19928;-65
2022/05/28 07:10:43;;;;;;;;;;;13.80;99.90;;;;;;5059253;28;20365;-65
2022/05/28 07:13:11;;;;;;;;;;;13.90;99.90;;;;;;5064695;28;20289;-66
2022/05/28 07:15:38;;;;;;;;;;;14.00;99.90;;;;;;5065363;28;19924;-66
2022/05/28 07:18:05;;;;;;;;;;;14.00;99.90;;;;;;5062079;28;19966;-66
2022/05/28 07:20:32;;;;;;;;;;;14.00;99.90;;;;;;5062839;28;20296;-67
2022/05/28 07:22:59;;;;;;;;;;;14.00;99.90;;;;;;5061150;28;19925;-66
2022/05/28 07:25:27;;;;;;;;;;;14.10;99.90;;;;;;5070235;28;19989;-66
2022/05/28 07:27:54;;;;;;;;;;;14.20;99.90;;;;;;5064205;28;20408;-66
2022/05/28 07:30:20;;;;;;;;;;;14.30;99.90;;;;;;5061560;28;19924;-66
2022/05/28 07:32:47;;;;;;;;;;;14.30;99.90;;;;;;5066857;28;19929;-65
2022/05/28 07:35:14;;;;;;;;;;;14.10;99.90;;;;;;5067112;28;19943;-65
2022/05/28 07:37:41;;;;;;;;;;;14.20;99.90;;;;;;5072670;28;19924;-65
2022/05/28 07:40:08;;;;;;;;;;;14.40;99.90;;;;;;5066390;28;20395;-65
2022/05/28 07:42:36;;;;;;;;;;;14.40;99.90;;;;;;5075238;28;20347;-65
2022/05/28 07:45:04;;;;;;;;;;;14.50;99.90;;;;;;5057883;28;19972;-65
2022/05/28 07:47:30;;;;;;;;;;;14.50;99.90;;;;;;5068297;28;19925;-66
2022/05/28 07:49:57;;;;;;;;;;;14.60;99.90;;;;;;5064999;28;20349;-65
2022/05/28 07:52:24;;;;;;;;;;;14.80;99.90;;;;;;5066830;28;19924;-65
2022/05/28 07:54:51;;;;;;;;;;;14.90;99.90;;;;;;5066101;28;19924;-65
2022/05/28 07:57:17;;;;;;;;;;;14.90;99.90;;;;;;5061394;28;19997;-65
2022/05/28 07:59:46;;;;;;;;;;;15.00;99.90;;;;;;5064625;28;19928;-65
2022/05/28 08:02:12;;;;;;;;;;;14.90;99.90;;;;;;5061087;28;19928;-65
2022/05/28 08:04:39;;;;;;;;;;;14.90;99.90;;;;;;5058512;28;19971;-65
2022/05/28 08:07:06;;;;;;;;;;;15.20;99.90;;;;;;5061617;28;19924;-64
2022/05/28 08:09:33;;;;;;;;;;;15.00;99.90;;;;;;5056135;28;19963;-65
2022/05/28 08:12:00;;;;;;;;;;;15.00;99.90;;;;;;5070132;28;19925;-65
2022/05/28 08:14:26;;;;;;;;;;;14.80;99.90;;;;;;5068533;28;19924;-64
2022/05/28 08:16:55;;;;;;;;;;;14.60;99.90;;;;;;5061069;28;19955;-65
2022/05/28 08:19:21;;;;;;;;;;;14.50;99.90;;;;;;5063640;28;19924;-64
2022/05/28 08:24:32;;;;;;;;;;;14.70;99.90;;;;;;5055654;28;19924;-65
2022/05/28 08:27:00;;;;;;;;;;;14.90;99.90;;;;;;5060928;28;19978;-65
2022/05/28 08:29:26;;;;;;;;;;;14.90;99.90;;;;;;5062171;28;20304;-65
2022/05/28 08:31:56;;;;;;;;;;;15.00;99.90;;;;;;5060460;28;19929;-65
2022/05/28 08:34:23;;;;;;;;;;;15.20;99.90;;;;;;5062566;28;19928;-65
2022/05/28 08:36:49;;;;;;;;;;;15.30;99.90;;;;;;5056135;28;20387;-65
2022/05/28 08:39:16;;;;;;;;;;;15.50;99.90;;;;;;5069228;28;19947;-65
2022/05/28 08:41:45;;;;;;;;;;;15.60;99.90;;;;;;5055834;28;19925;-65
2022/05/28 08:44:15;;;;;;;;;;;16.00;99.90;;;;;;5065936;28;20175;-65
2022/05/28 08:46:43;;;;;;;;;;;16.10;99.90;;;;;;5067865;28;19987;-65
2022/05/28 08:49:12;;;;;;;;;;;16.10;99.90;;;;;;5059113;28;19935;-65
2022/05/28 08:51:42;;;;;;;;;;;16.20;99.90;;;;;;5059060;28;19925;-65
2022/05/28 08:54:11;;;;;;;;;;;16.40;99.90;;;;;;5068033;28;19974;-65
2022/05/28 08:56:38;;;;;;;;;;;16.20;99.90;;;;;;5068487;28;19929;-65
2022/05/28 08:59:07;;;;;;;;;;;16.20;99.90;;;;;;5063593;28;20023;-65
2022/05/28 09:01:36;;;;;;;;;;;16.10;99.90;;;;;;5059971;28;19925;-65
2022/05/28 09:04:05;;;;;;;;;;;16.10;99.90;;;;;;5056443;28;19932;-65
2022/05/28 09:06:36;;;;;;;;;;;16.10;99.90;;;;;;5063255;28;19970;-65
2022/05/28 09:09:03;;;;;;;;;;;16.10;99.90;;;;;;5059544;28;19936;-65
2022/05/28 09:11:32;;;;;;;;;;;16.10;99.90;;;;;;5056488;28;19982;-64
2022/05/28 09:14:02;;;;;;;;;;;16.10;99.90;;;;;;5056394;28;20367;-64
2022/05/28 09:16:30;;;;;;;;;;;16.20;99.90;;;;;;5071432;28;19974;-65
2022/05/28 09:18:59;;;;;;;;;;;16.30;99.90;;;;;;5063557;28;19974;-65
2022/05/28 09:21:26;;;;;;;;;;;16.30;99.90;;;;;;5061595;28;19932;-65
2022/05/28 09:23:56;;;;;;;;;;;16.50;99.90;;;;;;5066425;28;20342;-65
2022/05/28 09:26:30;;;;;;;;;;;16.70;99.90;;;;;;5057211;28;19932;-65
2022/05/28 09:29:02;;;;;;;;;;;16.50;99.90;;;;;;5061242;28;20442;-65
2022/05/28 09:31:34;;;;;;;;;;;16.60;99.90;;;;;;5061918;28;19925;-65
2022/05/28 09:34:12;;;;;;;;;;;16.90;99.90;;;;;;5062468;28;20396;-65
2022/05/28 09:36:42;;;;;;;;;;;16.90;99.90;;;;;;5061002;28;19924;-65
2022/05/28 09:39:15;;;;;;;;;;;17.00;99.90;;;;;;5055074;28;20291;-65
2022/05/28 09:41:49;;;;;;;;;;;16.90;99.90;;;;;;5057337;28;19928;-64
2022/05/28 09:44:22;;;;;;;;;;;16.70;99.90;;;;;;5058178;28;20375;-65
2022/05/28 09:46:49;;;;;;;;;;;16.50;99.90;;;;;;5057767;28;19924;-65
2022/05/28 09:49:17;;;;;;;;;;;16.30;99.90;;;;;;5059398;28;19925;-64
2022/05/28 09:51:52;;;;;;;;;;;16.60;99.90;;;;;;5053347;28;19929;-66
2022/05/28 09:54:23;;;;;;;;;;;17.00;99.90;;;;;;5058305;28;19928;-65
2022/05/28 09:56:55;;;;;;;;;;;17.10;99.90;;;;;;5055350;28;19924;-66
2022/05/28 09:59:25;;;;;;;;;;;17.00;99.90;;;;;;5055472;28;19925;-66
2022/05/28 10:01:53;;;;;;;;;;;16.90;99.90;;;;;;5065621;28;19974;-66
2022/05/28 10:04:32;;;;;;;;;;;17.00;99.90;;;;;;5057184;28;20027;-66
2022/05/28 10:07:00;;;;;;;;;;;17.20;99.90;;;;;;5079066;28;19925;-65
2022/05/28 10:09:30;;;;;;;;;;;17.40;99.90;;;;;;5057704;28;19924;-65
2022/05/28 10:11:58;;;;;;;;;;;17.50;99.90;;;;;;5061233;28;19978;-65
2022/05/28 10:14:28;;;;;;;;;;;17.10;99.90;;;;;;5066712;28;19974;-66
2022/05/28 10:16:55;;;;;;;;;;;17.00;99.90;;;;;;5066107;28;19924;-66
2022/05/28 10:19:25;;;;;;;;;;;17.10;99.90;;;;;;5069120;28;19925;-65
2022/05/28 10:21:54;;;;;;;;;;;17.10;99.90;;;;;;5060966;28;19970;-66
2022/05/28 10:24:22;;;;;;;;;;;17.20;99.90;;;;;;5056582;28;19925;-66
2022/05/28 10:26:53;;;;;;;;;;;17.30;99.90;;;;;;5059990;28;19924;-66
2022/05/28 10:29:21;;;;;;;;;;;17.20;99.90;;;;;;5062238;28;19925;-66
2022/05/28 10:31:49;;;;;;;;;;;17.40;99.90;;;;;;5063296;28;19931;-66
2022/05/28 10:34:30;;;;;;;;;;;17.70;99.90;;;;;;5056619;28;19932;-66
2022/05/28 10:37:06;;;;;;;;;;;17.70;99.90;;;;;;5061772;28;19975;-66
2022/05/28 10:39:32;;;;;;;;;;;17.60;99.90;;;;;;5055731;28;20383;-65
2022/05/28 10:42:01;;;;;;;;;;;17.10;99.90;;;;;;5081615;22;19924;-68
2022/05/28 10:44:27;;;;;;;;;;;17.00;99.90;;;;;;5064046;28;19925;-66
2022/05/28 10:47:02;;;;;;;;;;;17.10;99.90;;;;;;5064136;28;20374;-66
2022/05/28 10:49:32;;;;;;;;;;;17.30;99.90;;;;;;5058015;28;20015;-67
2022/05/28 10:52:05;;;;;;;;;;;17.00;99.90;;;;;;5055959;28;19964;-66
2022/05/28 10:54:41;;;;;;;;;;;16.80;99.90;;;;;;5050837;28;20036;-66
2022/05/28 10:57:16;;;;;;;;;;;16.80;99.90;;;;;;5055526;28;20031;-66
2022/05/28 10:59:48;;;;;;;;;;;17.10;99.90;;;;;;5057194;28;19960;-67
2022/05/28 11:02:33;;;;;;;;;;;17.20;99.90;;;;;;5056697;28;19937;-67
2022/05/28 11:05:06;;;;;;;;;;;17.40;99.90;;;;;;5056636;28;19925;-66
2022/05/28 11:07:51;;;;;;;;;;;17.90;99.90;;;;;;5049584;28;19925;-67
2022/05/28 11:10:33;;;;;;;;;;;18.20;99.90;;;;;;5054350;28;19939;-67
2022/05/28 11:13:21;;;;;;;;;;;18.50;99.90;;;;;;5063775;28;20023;-66
2022/05/28 11:15:55;;;;;;;;;;;19.20;99.90;;;;;;5055545;28;19925;-67
2022/05/28 11:18:31;;;;;;;;;;;19.10;99.90;;;;;;5056373;28;20062;-67
2022/05/28 11:21:02;;;;;;;;;;;18.80;99.90;;;;;;5054294;28;19924;-66
2022/05/28 11:23:52;;;;;;;;;;;18.50;99.90;;;;;;5049810;28;19982;-66
2022/05/28 11:26:24;;;;;;;;;;;18.10;99.90;;;;;;5054683;28;19928;-66
2022/05/28 11:29:12;;;;;;;;;;;18.10;99.90;;;;;;5058331;28;19929;-67
2022/05/28 11:31:42;;;;;;;;;;;18.10;99.90;;;;;;5054451;28;19971;-67
2022/05/28 11:34:12;;;;;;;;;;;18.80;99.90;;;;;;5058144;28;19967;-66
2022/05/28 11:36:40;;;;;;;;;;;19.70;99.90;;;;;;5055648;28;20300;-66
2022/05/28 11:39:09;;;;;;;;;;;19.70;99.90;;;;;;5059974;28;19924;-67
2022/05/28 11:41:37;;;;;;;;;;;20.50;99.90;;;;;;5055642;28;19991;-66
2022/05/28 11:44:06;;;;;;;;;;;20.70;99.90;;;;;;5058142;28;19971;-66
2022/05/28 11:46:38;;;;;;;;;;;21.10;99.90;;;;;;5058835;28;19939;-65
2022/05/28 11:51:54;;;;;;;;;;;21.20;99.90;;;;;;5061868;28;20409;-64
2022/05/28 11:54:23;;;;;;;;;;;22.40;99.90;;;;;;5060108;28;19928;-65
2022/05/28 11:56:52;;;;;;;;;;;21.80;99.90;;;;;;5062787;28;19924;-64
2022/05/28 11:59:22;;;;;;;;;;;21.10;99.90;;;;;;5057996;28;20338;-64
2022/05/28 12:01:55;;;;;;;;;;;22.30;99.90;;;;;;5056341;28;20455;-64
2022/05/28 12:04:22;;;;;;;;;;;21.50;99.90;;;;;;5057761;28;19924;-67
2022/05/28 12:07:02;;;;;;;;;;;20.20;99.90;;;;;;5065291;28;19924;-65
2022/05/28 12:09:32;;;;;;;;;;;19.50;99.90;;;;;;5050932;28;19925;-66
2022/05/28 12:12:12;;;;;;;;;;;19.70;99.90;;;;;;5057438;28;20035;-65
2022/05/28 12:14:41;;;;;;;;;;;20.70;99.90;;;;;;5052533;28;19925;-65
2022/05/28 12:17:11;;;;;;;;;;;22.30;99.90;;;;;;5056167;28;19940;-65
2022/05/28 12:19:38;;;;;;;;;;;;;;;;;;5057952;28;19925;-65
2022/05/28 12:22:09;;;;;;;;;;;24.90;99.90;;;;;;5060378;28;19940;-63
2022/05/28 12:24:37;;;;;;;;;;;24.70;99.90;;;;;;5058893;28;19929;-65
2022/05/28 12:29:58;;;;;;;;;;;20.90;99.90;;;;;;5059744;28;20011;-65
2022/05/28 12:32:27;;;;;;;;;;;20.40;99.90;;;;;;5065952;28;19924;-65
2022/05/28 12:34:55;;;;;;;;;;;20.20;99.90;;;;;;5058998;28;19925;-65
2022/05/28 12:37:24;;;;;;;;;;;20.40;99.90;;;;;;5057315;28;19947;-65
2022/05/28 12:39:55;;;;;;;;;;;21.00;99.90;;;;;;5054375;28;19953;-65
2022/05/28 12:42:23;;;;;;;;;;;21.60;99.90;;;;;;5061438;28;20361;-63
2022/05/28 12:44:51;;;;;;;;;;;22.10;99.90;;;;;;5054802;28;20036;-65
2022/05/28 12:47:24;;;;;;;;;;;21.90;99.90;;;;;;5061282;28;20015;-66
2022/05/28 12:49:56;;;;;;;;;;;22.20;99.90;;;;;;5064565;28;20330;-76
2022/05/28 12:52:34;;;;;;;;;;;21.90;99.90;;;;;;5059480;28;19924;-66
2022/05/28 12:55:03;;;;;;;;;;;21.40;99.90;;;;;;5052902;28;20354;-63
2022/05/28 12:57:31;;;;;;;;;;;22.30;99.90;;;;;;5050473;28;20364;-66
2022/05/28 13:00:04;;;;;;;;;;;21.40;99.90;;;;;;5057141;28;20004;-65
2022/05/28 13:02:33;;;;;;;;;;;20.90;99.90;;;;;;5050624;28;19925;-65
2022/05/28 13:05:07;;;;;;;;;;;20.10;99.90;;;;;;5057470;28;19924;-65
2022/05/28 13:07:35;;;;;;;;;;;19.50;99.90;;;;;;5069241;28;20552;-65
2022/05/28 13:10:04;;;;;;;;;;;19.60;99.90;;;;;;5056797;28;19929;-65
2022/05/28 13:12:34;;;;;;;;;;;20.60;99.90;;;;;;5058519;28;19925;-65
2022/05/28 13:15:18;;;;;;;;;;;21.40;99.90;;;;;;5058764;28;19924;-65
2022/05/28 13:18:06;;;;;;;;;;;21.30;99.90;;;;;;5000577;28;20407;-68
2022/05/28 13:20:48;;;;;;;;;;;20.30;99.90;;;;;;5050273;28;20399;-65
2022/05/28 13:23:20;;;;;;;;;;;18.20;99.90;;;;;;5062280;28;19925;-64
2022/05/28 13:26:02;;;;;;;;;;;19.00;99.90;;;;;;5055633;28;19933;-65
2022/05/28 13:28:38;;;;;;;;;;;19.10;99.90;;;;;;5062932;28;20339;-65
2022/05/28 13:31:07;;;;;;;;;;;20.20;99.90;;;;;;5055025;28;20490;-64
2022/05/28 13:33:35;;;;;;;;;;;20.00;99.90;;;;;;5061757;28;19925;-64
2022/05/28 13:36:06;;;;;;;;;;;20.10;99.90;;;;;;5056510;28;19924;-66
2022/05/28 13:38:35;;;;;;;;;;;21.00;99.90;;;;;;5052436;28;19925;-64
2022/05/28 13:41:03;;;;;;;;;;;21.10;99.90;;;;;;5059681;28;19925;-70
2022/05/28 13:43:40;;;;;;;;;;;20.50;99.90;;;;;;5052908;28;19925;-63
2022/05/28 13:46:09;;;;;;;;;;;19.80;99.90;;;;;;5059121;28;19929;-64
2022/05/28 13:48:39;;;;;;;;;;;19.30;99.90;;;;;;5059816;28;19924;-63
2022/05/28 13:51:09;;;;;;;;;;;19.20;99.90;;;;;;5060325;28;20374;-65
2022/05/28 13:53:38;;;;;;;;;;;19.50;99.90;;;;;;5054857;28;19925;-66
2022/05/28 13:56:05;;;;;;;;;;;20.70;99.90;;;;;;5058653;28;19936;-66
2022/05/28 13:58:33;;;;;;;;;;;22.70;99.90;;;;;;5059576;28;19924;-66
2022/05/28 14:01:01;;;;;;;;;;;23.80;99.90;;;;;;5059164;28;19929;-66
2022/05/28 14:03:29;;;;;;;;;;;24.30;99.90;;;;;;5062227;28;19974;-66
2022/05/28 14:05:56;;;;;;;;;;;24.30;99.90;;;;;;5059650;28;19924;-66
2022/05/28 14:08:26;;;;;;;;;;;24.20;99.90;;;;;;5063696;28;19966;-66
2022/05/28 14:11:00;;;;;;;;;;;24.70;99.90;;;;;;5053580;28;19925;-66
2022/05/28 14:13:29;;;;;;;;;;;24.20;99.90;;;;;;5051338;28;19929;-66
2022/05/28 14:15:56;;;;;;;;;;;24.20;99.00;;;;;;5054022;28;19928;-65
2022/05/28 14:18:24;;;;;;;;;;;23.70;99.00;;;;;;5060218;28;19928;-65
2022/05/28 14:20:51;;;;;;;;;;;22.60;98.90;;;;;;5056505;28;20346;-66
2022/05/28 14:23:26;;;;;;;;;;;22.50;99.00;;;;;;5058925;28;20346;-66
2022/05/28 14:25:53;;;;;;;;;;;23.60;98.80;;;;;;5056081;28;20394;-66
2022/05/28 14:28:21;;;;;;;;;;;24.20;98.70;;;;;;5063287;28;19932;-66
2022/05/28 14:30:48;;;;;;;;;;;24.60;98.50;;;;;;5053866;28;19983;-65
2022/05/28 14:33:23;;;;;;;;;;;24.00;98.90;;;;;;5056108;28;20460;-65
2022/05/28 14:35:49;;;;;;;;;;;24.10;98.20;;;;;;5058745;28;20369;-66
2022/05/28 14:38:25;;;;;;;;;;;23.80;96.30;;;;;;5058779;28;19928;-64